createdAt,value
2023-05-18T00:00:16.916Z,6.56
2023-05-18T00:01:16.564Z,6.50
2023-05-18T00:02:17.262Z,6.43
2023-05-18T00:03:17.002Z,6.43
2023-05-18T00:04:16.832Z,6.45
2023-05-18T00:05:16.534Z,6.48
2023-05-18T00:06:17.065Z,6.48
2023-05-18T00:07:16.661Z,6.48
2023-05-18T00:08:17.309Z,6.48
2023-05-18T00:09:16.925Z,6.49
2023-05-18T00:10:16.560Z,6.45
2023-05-18T00:11:17.226Z,6.42
2023-05-18T00:12:17.175Z,6.39
2023-05-18T00:13:16.739Z,6.35
2023-05-18T00:14:17.302Z,6.32
2023-05-18T00:15:16.910Z,6.25
2023-05-18T00:16:16.503Z,6.22
2023-05-18T00:17:17.118Z,6.18
2023-05-18T00:18:16.683Z,6.18
2023-05-18T00:19:17.623Z,6.15
2023-05-18T00:20:16.332Z,6.18
2023-05-18T00:21:16.886Z,6.11
2023-05-18T00:22:16.692Z,6.04
2023-05-18T00:23:17.268Z,6.01
2023-05-18T00:24:16.845Z,6.01
2023-05-18T00:25:16.411Z,5.94
2023-05-18T00:26:16.959Z,5.94
2023-05-18T00:27:16.517Z,5.89
2023-05-18T00:28:17.076Z,5.87
2023-05-18T00:29:16.599Z,5.83
2023-05-18T00:30:17.186Z,5.83
2023-05-18T00:31:16.801Z,5.79
2023-05-18T00:32:16.913Z,5.75
2023-05-18T00:33:16.459Z,5.76
2023-05-18T00:34:17.010Z,5.76
2023-05-18T00:35:16.540Z,5.73
2023-05-18T00:36:17.109Z,5.70
2023-05-18T00:37:16.676Z,5.73
2023-05-18T00:38:17.233Z,5.66
2023-05-18T00:39:16.793Z,5.65
2023-05-18T00:40:16.374Z,5.62
2023-05-18T00:41:16.967Z,5.57
2023-05-18T00:42:17.149Z,5.51
2023-05-18T00:43:16.750Z,5.48
2023-05-18T00:44:17.305Z,5.45
2023-05-18T00:45:16.936Z,5.43
2023-05-18T00:46:16.524Z,5.43
2023-05-18T00:47:17.182Z,5.42
2023-05-18T00:48:16.764Z,5.38
2023-05-18T00:49:16.368Z,5.37
2023-05-18T00:50:16.927Z,5.32
2023-05-18T00:51:16.498Z,5.30
2023-05-18T00:52:17.109Z,5.27
2023-05-18T00:53:16.624Z,5.28
2023-05-18T00:54:17.194Z,5.31
2023-05-18T00:55:16.740Z,5.34
2023-05-18T00:56:16.314Z,5.32
2023-05-18T00:57:16.909Z,5.31
2023-05-18T00:58:16.469Z,5.28
2023-05-18T00:59:17.057Z,5.27
2023-05-18T01:00:16.617Z,5.24
2023-05-18T01:01:17.192Z,5.21
2023-05-18T01:02:17.266Z,5.18
2023-05-18T01:03:17.012Z,5.18
2023-05-18T01:04:16.650Z,5.11
2023-05-18T01:05:17.229Z,5.04
2023-05-18T01:06:16.785Z,5.03
2023-05-18T01:07:16.319Z,5.02
2023-05-18T01:08:16.945Z,5.06
2023-05-18T01:09:16.552Z,5.10
2023-05-18T01:10:17.156Z,5.04
2023-05-18T01:11:16.838Z,5.02
2023-05-18T01:12:16.832Z,5.02
2023-05-18T01:13:16.389Z,5.04
2023-05-18T01:14:16.961Z,5.04
2023-05-18T01:15:16.538Z,5.03
2023-05-18T01:16:17.099Z,5.03
2023-05-18T01:17:16.716Z,5.04
2023-05-18T01:18:16.519Z,5.11
2023-05-18T01:19:17.171Z,5.10
2023-05-18T01:20:17.043Z,5.08
2023-05-18T01:21:16.599Z,5.06
2023-05-18T01:22:16.474Z,5.06
2023-05-18T01:23:17.032Z,5.03
2023-05-18T01:24:16.580Z,5.02
2023-05-18T01:25:17.129Z,5.03
2023-05-18T01:26:16.733Z,5.02
2023-05-18T01:27:17.268Z,5.00
2023-05-18T01:28:16.829Z,5.00
2023-05-18T01:29:16.419Z,5.00
2023-05-18T01:30:16.973Z,5.02
2023-05-18T01:31:16.702Z,5.00
2023-05-18T01:32:16.872Z,4.99
2023-05-18T01:33:16.401Z,5.02
2023-05-18T01:34:16.985Z,4.99
2023-05-18T01:35:16.543Z,4.99
2023-05-18T01:36:17.104Z,4.99
2023-05-18T01:37:16.637Z,4.97
2023-05-18T01:38:17.194Z,4.99
2023-05-18T01:39:16.896Z,5.00
2023-05-18T01:40:16.508Z,4.99
2023-05-18T01:41:17.066Z,5.00
2023-05-18T01:42:16.993Z,5.00
2023-05-18T01:43:16.552Z,5.00
2023-05-18T01:44:17.156Z,4.97
2023-05-18T01:45:16.816Z,5.00
2023-05-18T01:46:16.433Z,5.02
2023-05-18T01:47:17.037Z,5.03
2023-05-18T01:48:16.649Z,5.11
2023-05-18T01:49:17.192Z,5.13
2023-05-18T01:50:16.764Z,5.13
2023-05-18T01:51:16.341Z,5.17
2023-05-18T01:52:17.297Z,5.14
2023-05-18T01:53:16.854Z,5.13
2023-05-18T01:54:16.416Z,5.07
2023-05-18T01:55:16.987Z,5.04
2023-05-18T01:56:16.592Z,5.02
2023-05-18T01:57:17.132Z,5.08
2023-05-18T01:58:16.676Z,5.07
2023-05-18T01:59:17.204Z,5.04
2023-05-18T02:00:16.765Z,5.03
2023-05-18T02:01:17.362Z,5.00
2023-05-18T02:02:17.037Z,4.93
2023-05-18T02:03:16.818Z,4.89
2023-05-18T02:04:16.665Z,4.89
2023-05-18T02:05:16.443Z,4.86
2023-05-18T02:06:17.003Z,4.82
2023-05-18T02:07:16.609Z,4.82
2023-05-18T02:08:17.224Z,4.76
2023-05-18T02:09:16.810Z,4.75
2023-05-18T02:10:16.390Z,4.71
2023-05-18T02:11:16.936Z,4.71
2023-05-18T02:12:16.846Z,4.75
2023-05-18T02:13:16.392Z,4.72
2023-05-18T02:14:16.956Z,4.75
2023-05-18T02:15:16.558Z,4.73
2023-05-18T02:16:17.140Z,4.73
2023-05-18T02:17:16.856Z,4.76
2023-05-18T02:18:16.407Z,4.73
2023-05-18T02:19:16.991Z,4.75
2023-05-18T02:20:16.652Z,4.78
2023-05-18T02:21:17.285Z,4.78
2023-05-18T02:22:17.287Z,4.72
2023-05-18T02:23:16.832Z,4.73
2023-05-18T02:24:16.369Z,4.72
2023-05-18T02:25:16.908Z,4.71
2023-05-18T02:26:16.462Z,4.72
2023-05-18T02:27:17.004Z,4.68
2023-05-18T02:28:16.539Z,4.68
2023-05-18T02:29:17.088Z,4.79
2023-05-18T02:30:16.643Z,4.87
2023-05-18T02:31:17.282Z,4.93
2023-05-18T02:32:16.977Z,4.89
2023-05-18T02:33:16.602Z,4.87
2023-05-18T02:34:17.208Z,4.85
2023-05-18T02:35:16.870Z,4.79
2023-05-18T02:36:16.422Z,4.72
2023-05-18T02:37:16.991Z,4.71
2023-05-18T02:38:16.620Z,4.71
2023-05-18T02:39:17.199Z,4.69
2023-05-18T02:40:16.729Z,4.71
2023-05-18T02:41:17.275Z,4.68
2023-05-18T02:42:16.342Z,4.68
2023-05-18T02:43:16.885Z,4.68
2023-05-18T02:44:16.470Z,4.68
2023-05-18T02:45:17.032Z,4.64
2023-05-18T02:46:16.675Z,4.61
2023-05-18T02:47:16.357Z,4.59
2023-05-18T02:48:16.946Z,4.58
2023-05-18T02:49:16.558Z,4.57
2023-05-18T02:50:17.113Z,4.55
2023-05-18T02:51:16.678Z,4.55
2023-05-18T02:52:16.821Z,4.51
2023-05-18T02:53:16.379Z,4.50
2023-05-18T02:54:16.959Z,4.48
2023-05-18T02:55:16.539Z,4.45
2023-05-18T02:56:17.107Z,4.44
2023-05-18T02:57:16.671Z,4.45
2023-05-18T02:58:17.288Z,4.44
2023-05-18T02:59:16.829Z,4.41
2023-05-18T03:00:16.397Z,4.37
2023-05-18T03:01:17.214Z,4.34
2023-05-18T03:02:16.950Z,4.33
2023-05-18T03:03:16.656Z,4.31
2023-05-18T03:04:16.369Z,4.34
2023-05-18T03:05:16.937Z,4.30
2023-05-18T03:06:16.460Z,4.31
2023-05-18T03:07:17.008Z,4.28
2023-05-18T03:08:16.564Z,4.27
2023-05-18T03:09:17.137Z,4.23
2023-05-18T03:10:16.726Z,4.23
2023-05-18T03:11:17.262Z,4.23
2023-05-18T03:12:16.372Z,4.20
2023-05-18T03:13:16.906Z,4.17
2023-05-18T03:14:16.461Z,4.17
2023-05-18T03:15:17.034Z,4.10
2023-05-18T03:16:16.754Z,4.07
2023-05-18T03:17:16.387Z,4.05
2023-05-18T03:18:16.957Z,4.02
2023-05-18T03:19:16.585Z,4.03
2023-05-18T03:20:16.364Z,4.02
2023-05-18T03:21:16.909Z,4.00
2023-05-18T03:22:16.549Z,4.00
2023-05-18T03:23:17.112Z,4.02
2023-05-18T03:24:16.742Z,3.95
2023-05-18T03:25:17.291Z,3.93
2023-05-18T03:26:16.903Z,3.90
2023-05-18T03:27:16.502Z,3.89
2023-05-18T03:28:17.094Z,3.88
2023-05-18T03:29:16.642Z,3.79
2023-05-18T03:30:17.225Z,3.79
2023-05-18T03:31:16.805Z,3.79
2023-05-18T03:32:16.577Z,3.69
2023-05-18T03:33:17.286Z,3.71
2023-05-18T03:34:17.020Z,3.71
2023-05-18T03:35:16.587Z,3.72
2023-05-18T03:36:17.231Z,3.74
2023-05-18T03:37:16.808Z,3.74
2023-05-18T03:38:16.349Z,3.74
2023-05-18T03:39:16.924Z,3.72
2023-05-18T03:40:16.470Z,3.71
2023-05-18T03:41:17.046Z,3.69
2023-05-18T03:42:17.091Z,3.65
2023-05-18T03:43:16.669Z,3.65
2023-05-18T03:44:17.241Z,3.62
2023-05-18T03:45:16.811Z,3.62
2023-05-18T03:46:16.407Z,3.67
2023-05-18T03:47:17.017Z,3.64
2023-05-18T03:48:16.581Z,3.68
2023-05-18T03:49:17.107Z,3.64
2023-05-18T03:50:16.628Z,3.62
2023-05-18T03:51:17.179Z,3.64
2023-05-18T03:52:17.196Z,3.65
2023-05-18T03:53:16.740Z,3.64
2023-05-18T03:54:17.292Z,3.65
2023-05-18T03:55:16.860Z,3.68
2023-05-18T03:56:16.383Z,3.75
2023-05-18T03:57:16.941Z,3.75
2023-05-18T03:58:16.570Z,3.77
2023-05-18T03:59:17.166Z,3.78
2023-05-18T04:00:16.720Z,3.78
2023-05-18T04:01:16.443Z,3.82
2023-05-18T04:02:17.060Z,3.85
2023-05-18T04:03:16.800Z,3.86
2023-05-18T04:04:16.727Z,3.86
2023-05-18T04:05:16.452Z,3.92
2023-05-18T04:06:17.040Z,3.90
2023-05-18T04:07:16.591Z,3.93
2023-05-18T04:08:17.229Z,3.97
2023-05-18T04:09:16.760Z,4.05
2023-05-18T04:10:17.301Z,4.05
2023-05-18T04:11:16.857Z,4.03
2023-05-18T04:12:16.773Z,4.27
2023-05-18T04:13:16.348Z,4.24
2023-05-18T04:14:16.933Z,4.27
2023-05-18T04:15:16.516Z,4.34
2023-05-18T04:16:17.162Z,4.34
2023-05-18T04:17:16.811Z,4.34
2023-05-18T04:18:16.348Z,4.35
2023-05-18T04:19:16.955Z,4.48
2023-05-18T04:20:16.674Z,4.51
2023-05-18T04:21:17.236Z,4.55
2023-05-18T04:22:17.097Z,4.64
2023-05-18T04:23:16.853Z,4.65
2023-05-18T04:24:16.522Z,4.73
2023-05-18T04:25:17.114Z,4.78
2023-05-18T04:26:16.676Z,4.86
2023-05-18T04:27:17.213Z,4.92
2023-05-18T04:28:16.759Z,4.96
2023-05-18T04:29:16.326Z,5.00
2023-05-18T04:30:16.907Z,4.99
2023-05-18T04:31:16.440Z,5.04
2023-05-18T04:32:16.694Z,5.21
2023-05-18T04:33:16.569Z,5.28
2023-05-18T04:34:17.248Z,5.41
2023-05-18T04:35:16.807Z,5.52
2023-05-18T04:36:16.362Z,5.59
2023-05-18T04:37:16.711Z,5.59
2023-05-18T04:38:17.271Z,5.76
2023-05-18T04:39:16.883Z,5.79
2023-05-18T04:40:16.421Z,5.79
2023-05-18T04:41:16.977Z,5.87
2023-05-18T04:42:16.763Z,5.92
2023-05-18T04:43:17.323Z,5.97
2023-05-18T04:44:16.909Z,6.05
2023-05-18T04:45:16.475Z,6.20
2023-05-18T04:46:17.100Z,6.25
2023-05-18T04:47:16.815Z,6.21
2023-05-18T04:48:16.401Z,6.31
2023-05-18T04:49:16.939Z,6.39
2023-05-18T04:50:16.492Z,6.45
2023-05-18T04:51:17.074Z,6.59
2023-05-18T04:52:16.879Z,6.67
2023-05-18T04:53:16.450Z,6.70
2023-05-18T04:54:17.035Z,6.86
2023-05-18T04:55:16.628Z,7.01
2023-05-18T04:56:17.225Z,7.15
2023-05-18T04:57:16.851Z,7.25
2023-05-18T04:58:16.425Z,7.33
2023-05-18T04:59:16.984Z,7.42
2023-05-18T05:00:16.532Z,7.47
2023-05-18T05:01:16.622Z,7.58
2023-05-18T05:02:16.424Z,7.74
2023-05-18T05:03:17.114Z,7.80
2023-05-18T05:04:16.834Z,7.92
2023-05-18T05:05:16.410Z,7.98
2023-05-18T05:06:16.963Z,8.06
2023-05-18T05:07:16.576Z,8.11
2023-05-18T05:08:17.189Z,8.05
2023-05-18T05:09:16.754Z,8.06
2023-05-18T05:10:17.322Z,8.06
2023-05-18T05:11:16.886Z,8.23
2023-05-18T05:12:16.717Z,8.56
2023-05-18T05:13:17.256Z,8.72
2023-05-18T05:14:16.829Z,8.92
2023-05-18T05:15:16.384Z,9.05
2023-05-18T05:16:16.923Z,9.06
2023-05-18T05:17:16.734Z,9.09
2023-05-18T05:18:17.294Z,9.43
2023-05-18T05:19:16.912Z,9.48
2023-05-18T05:20:16.591Z,9.62
2023-05-18T05:21:17.285Z,9.86
2023-05-18T05:22:16.906Z,10.13
2023-05-18T05:23:16.486Z,10.19
2023-05-18T05:24:17.169Z,10.14
2023-05-18T05:25:16.736Z,9.95
2023-05-18T05:26:17.272Z,10.02
2023-05-18T05:27:16.855Z,10.24
2023-05-18T05:28:16.400Z,10.48
2023-05-18T05:29:16.962Z,10.49
2023-05-18T05:30:16.554Z,10.75
2023-05-18T05:31:17.131Z,11.03
2023-05-18T05:32:17.117Z,11.44
2023-05-18T05:33:16.720Z,11.58
2023-05-18T05:34:16.367Z,11.71
2023-05-18T05:35:16.925Z,11.92
2023-05-18T05:36:16.470Z,12.00
2023-05-18T05:37:17.034Z,12.23
2023-05-18T05:38:16.620Z,11.89
2023-05-18T05:39:17.175Z,12.10
2023-05-18T05:40:16.760Z,12.12
2023-05-18T05:41:16.392Z,12.27
2023-05-18T05:42:17.264Z,12.14
2023-05-18T05:43:16.815Z,12.04
2023-05-18T05:44:16.388Z,11.94
2023-05-18T05:45:17.072Z,11.94
2023-05-18T05:46:16.695Z,11.79
2023-05-18T05:47:16.353Z,11.62
2023-05-18T05:48:17.044Z,12.08
2023-05-18T05:49:16.696Z,12.32
2023-05-18T05:50:17.243Z,12.62
2023-05-18T05:51:16.799Z,12.79
2023-05-18T05:52:16.526Z,12.49
2023-05-18T05:53:17.064Z,12.59
2023-05-18T05:54:16.608Z,12.35
2023-05-18T05:55:17.160Z,12.37
2023-05-18T05:56:16.704Z,12.37
2023-05-18T05:57:17.300Z,12.82
2023-05-18T05:58:16.852Z,13.11
2023-05-18T05:59:16.390Z,13.15
2023-05-18T06:00:16.964Z,13.46
2023-05-18T06:01:16.513Z,13.56
2023-05-18T06:02:17.322Z,13.27
2023-05-18T06:03:16.984Z,13.31
2023-05-18T06:04:16.595Z,13.31
2023-05-18T06:05:17.243Z,13.43
2023-05-18T06:06:16.775Z,13.18
2023-05-18T06:07:16.335Z,12.96
2023-05-18T06:08:16.943Z,13.49
2023-05-18T06:09:16.524Z,13.70
2023-05-18T06:10:17.083Z,13.82
2023-05-18T06:11:16.652Z,14.03
2023-05-18T06:12:17.155Z,14.12
2023-05-18T06:13:16.691Z,13.87
2023-05-18T06:14:17.205Z,14.22
2023-05-18T06:15:16.794Z,14.15
2023-05-18T06:16:16.370Z,14.08
2023-05-18T06:17:16.986Z,14.22
2023-05-18T06:18:16.535Z,14.12
2023-05-18T06:19:17.207Z,13.22
2023-05-18T06:20:16.910Z,12.28
2023-05-18T06:21:16.492Z,12.60
2023-05-18T06:22:16.335Z,12.59
2023-05-18T06:23:16.880Z,13.28
2023-05-18T06:24:16.427Z,13.66
2023-05-18T06:25:16.965Z,13.72
2023-05-18T06:26:16.560Z,14.21
2023-05-18T06:27:17.093Z,14.28
2023-05-18T06:28:16.645Z,14.39
2023-05-18T06:29:17.230Z,14.58
2023-05-18T06:30:16.790Z,14.84
2023-05-18T06:31:16.358Z,14.87
2023-05-18T06:32:16.598Z,15.02
2023-05-18T06:33:17.363Z,14.98
2023-05-18T06:34:16.994Z,14.76
2023-05-18T06:35:16.552Z,15.18
2023-05-18T06:36:17.110Z,15.21
2023-05-18T06:37:16.645Z,15.22
2023-05-18T06:38:17.240Z,15.11
2023-05-18T06:39:16.827Z,15.22
2023-05-18T06:40:16.392Z,15.17
2023-05-18T06:41:17.026Z,15.42
2023-05-18T06:42:16.609Z,15.50
2023-05-18T06:43:17.145Z,15.14
2023-05-18T06:44:16.699Z,14.94
2023-05-18T06:45:17.266Z,14.72
2023-05-18T06:46:16.850Z,14.87
2023-05-18T06:47:16.491Z,15.11
2023-05-18T06:48:17.059Z,14.88
2023-05-18T06:49:16.648Z,13.55
2023-05-18T06:50:17.244Z,13.41
2023-05-18T06:51:16.785Z,14.21
2023-05-18T06:52:17.139Z,13.66
2023-05-18T06:53:16.754Z,12.96
2023-05-18T06:54:17.324Z,13.17
2023-05-18T06:55:16.920Z,13.52
2023-05-18T06:56:16.469Z,13.55
2023-05-18T06:57:17.011Z,14.10
2023-05-18T06:58:16.600Z,13.76
2023-05-18T06:59:17.140Z,14.48
2023-05-18T07:00:16.687Z,14.33
2023-05-18T07:01:17.217Z,15.05
2023-05-18T07:02:17.153Z,13.69
2023-05-18T07:03:16.825Z,13.43
2023-05-18T07:04:16.655Z,14.40
2023-05-18T07:05:17.240Z,15.42
2023-05-18T07:06:16.800Z,14.67
2023-05-18T07:07:16.357Z,14.24
2023-05-18T07:08:16.971Z,14.67
2023-05-18T07:09:16.666Z,14.97
2023-05-18T07:10:17.225Z,15.66
2023-05-18T07:11:16.792Z,16.59
2023-05-18T07:12:16.420Z,15.97
2023-05-18T07:13:16.965Z,16.15
2023-05-18T07:14:16.540Z,16.78
2023-05-18T07:15:17.091Z,17.11
2023-05-18T07:16:16.667Z,16.98
2023-05-18T07:17:17.277Z,17.08
2023-05-18T07:18:16.826Z,17.23
2023-05-18T07:19:16.405Z,17.26
2023-05-18T07:20:17.046Z,15.85
2023-05-18T07:21:16.617Z,15.80
2023-05-18T07:22:16.368Z,15.50
2023-05-18T07:23:16.935Z,15.00
2023-05-18T07:24:16.486Z,16.12
2023-05-18T07:25:17.104Z,15.83
2023-05-18T07:26:16.669Z,15.88
2023-05-18T07:27:17.241Z,15.95
2023-05-18T07:28:16.812Z,16.86
2023-05-18T07:29:16.396Z,17.16
2023-05-18T07:30:16.961Z,17.39
2023-05-18T07:31:16.686Z,17.35
2023-05-18T07:32:17.211Z,16.66
2023-05-18T07:33:16.776Z,14.84
2023-05-18T07:34:16.471Z,16.29
2023-05-18T07:35:17.147Z,15.57
2023-05-18T07:36:16.737Z,16.71
2023-05-18T07:37:17.304Z,16.86
2023-05-18T07:38:16.885Z,16.97
2023-05-18T07:39:17.461Z,17.46
2023-05-18T07:40:16.954Z,15.87
2023-05-18T07:41:16.500Z,16.01
2023-05-18T07:42:17.156Z,16.07
2023-05-18T07:43:16.697Z,15.88
2023-05-18T07:44:17.264Z,17.53
2023-05-18T07:45:16.815Z,17.30
2023-05-18T07:46:16.390Z,16.01
2023-05-18T07:47:17.129Z,15.73
2023-05-18T07:48:16.689Z,16.25
2023-05-18T07:49:17.263Z,15.15
2023-05-18T07:50:16.839Z,15.84
2023-05-18T07:51:16.429Z,16.52
2023-05-18T07:52:17.270Z,16.91
2023-05-18T07:53:16.849Z,17.12
2023-05-18T07:54:16.405Z,17.58
2023-05-18T07:55:17.026Z,17.77
2023-05-18T07:56:16.573Z,17.80
2023-05-18T07:57:17.168Z,17.49
2023-05-18T07:58:16.737Z,17.32
2023-05-18T07:59:17.289Z,16.86
2023-05-18T08:00:16.854Z,16.45
2023-05-18T08:01:16.399Z,17.08
2023-05-18T08:02:16.401Z,18.05
2023-05-18T08:03:17.118Z,18.54
2023-05-18T08:04:16.875Z,19.13
2023-05-18T08:05:16.517Z,19.20
2023-05-18T08:06:17.084Z,18.11
2023-05-18T08:07:16.691Z,18.05
2023-05-18T08:08:17.261Z,18.01
2023-05-18T08:09:16.844Z,18.54
2023-05-18T08:10:16.376Z,18.36
2023-05-18T08:11:16.987Z,19.03
2023-05-18T08:12:16.904Z,19.27
2023-05-18T08:13:16.527Z,19.13
2023-05-18T08:14:17.199Z,19.75
2023-05-18T08:15:16.731Z,20.85
2023-05-18T08:16:17.299Z,21.21
2023-05-18T08:17:16.952Z,21.72
2023-05-18T08:18:16.540Z,20.93
2023-05-18T08:19:17.245Z,19.26
2023-05-18T08:20:16.917Z,18.09
2023-05-18T08:21:16.466Z,17.46
2023-05-18T08:22:17.184Z,19.47
2023-05-18T08:23:16.759Z,19.31
2023-05-18T08:24:17.307Z,19.22
2023-05-18T08:25:16.874Z,17.84
2023-05-18T08:26:16.426Z,17.64
2023-05-18T08:27:16.983Z,16.74
2023-05-18T08:28:16.511Z,16.83
2023-05-18T08:29:17.059Z,16.97
2023-05-18T08:30:16.617Z,17.50
2023-05-18T08:31:17.233Z,18.11
2023-05-18T08:32:17.003Z,17.37
2023-05-18T08:33:16.825Z,17.53
2023-05-18T08:34:16.566Z,17.70
2023-05-18T08:35:17.141Z,17.04
2023-05-18T08:36:16.709Z,17.21
2023-05-18T08:37:17.271Z,17.81
2023-05-18T08:38:16.836Z,17.33
2023-05-18T08:39:16.366Z,16.75
2023-05-18T08:40:16.893Z,17.29
2023-05-18T08:41:16.468Z,16.18
2023-05-18T08:42:17.187Z,16.54
2023-05-18T08:43:16.731Z,16.68
2023-05-18T08:44:17.297Z,15.90
2023-05-18T08:45:16.864Z,16.02
2023-05-18T08:46:16.460Z,15.55
2023-05-18T08:47:17.013Z,15.81
2023-05-18T08:48:16.707Z,16.12
2023-05-18T08:49:16.541Z,16.24
2023-05-18T08:50:17.111Z,16.53
2023-05-18T08:51:16.653Z,16.46
2023-05-18T08:52:17.284Z,16.70
2023-05-18T08:53:16.829Z,16.90
2023-05-18T08:54:16.361Z,15.81
2023-05-18T08:55:16.945Z,16.05
2023-05-18T08:56:16.499Z,15.42
2023-05-18T08:57:17.077Z,16.42
2023-05-18T08:58:16.644Z,15.98
2023-05-18T08:59:17.224Z,15.32
2023-05-18T09:00:16.788Z,16.09
2023-05-18T09:01:16.414Z,15.90
2023-05-18T09:02:16.982Z,15.55
2023-05-18T09:03:16.592Z,15.41
2023-05-18T09:04:17.273Z,15.60
2023-05-18T09:05:16.924Z,16.24
2023-05-18T09:06:16.781Z,16.45
2023-05-18T09:07:16.326Z,16.33
2023-05-18T09:08:16.874Z,16.88
2023-05-18T09:09:16.420Z,17.52
2023-05-18T09:10:16.975Z,17.32
2023-05-18T09:11:16.548Z,17.71
2023-05-18T09:12:17.222Z,17.97
2023-05-18T09:13:16.774Z,17.32
2023-05-18T09:14:16.367Z,17.74
2023-05-18T09:15:16.982Z,18.50
2023-05-18T09:16:16.587Z,19.47
2023-05-18T09:17:17.202Z,19.71
2023-05-18T09:18:16.811Z,19.07
2023-05-18T09:19:16.457Z,18.40
2023-05-18T09:20:17.305Z,18.37
2023-05-18T09:21:16.851Z,18.39
2023-05-18T09:22:16.645Z,17.66
2023-05-18T09:23:17.187Z,17.32
2023-05-18T09:24:16.772Z,17.14
2023-05-18T09:25:17.299Z,17.40
2023-05-18T09:26:16.912Z,17.33
2023-05-18T09:27:16.469Z,17.29
2023-05-18T09:28:17.061Z,18.20
2023-05-18T09:29:16.633Z,17.11
2023-05-18T09:30:17.272Z,17.12
2023-05-18T09:31:16.843Z,17.50
2023-05-18T09:32:16.882Z,18.44
2023-05-18T09:33:16.484Z,18.43
2023-05-18T09:34:17.222Z,18.39
2023-05-18T09:35:16.774Z,17.21
2023-05-18T09:36:16.324Z,17.44
2023-05-18T09:37:16.947Z,17.76
2023-05-18T09:38:16.496Z,17.64
2023-05-18T09:39:17.027Z,18.47
2023-05-18T09:40:16.590Z,18.40
2023-05-18T09:41:17.191Z,18.64
2023-05-18T09:42:16.429Z,18.11
2023-05-18T09:43:17.021Z,17.56
2023-05-18T09:44:16.601Z,17.27
2023-05-18T09:45:17.153Z,18.26
2023-05-18T09:46:16.847Z,17.74
2023-05-18T09:47:16.453Z,17.42
2023-05-18T09:48:16.991Z,18.02
2023-05-18T09:49:16.525Z,18.23
2023-05-18T09:50:17.082Z,18.94
2023-05-18T09:51:17.046Z,19.48
2023-05-18T09:52:17.171Z,19.71
2023-05-18T09:53:16.696Z,19.58
2023-05-18T09:54:17.218Z,19.33
2023-05-18T09:55:16.814Z,19.75
2023-05-18T09:56:16.410Z,20.13
2023-05-18T09:57:16.944Z,20.21
2023-05-18T09:58:16.544Z,18.49
2023-05-18T09:59:17.089Z,18.75
2023-05-18T10:00:16.652Z,18.53
2023-05-18T10:01:17.284Z,18.37
2023-05-18T10:02:17.059Z,18.72
2023-05-18T10:03:16.621Z,17.99
2023-05-18T10:04:17.339Z,18.05
2023-05-18T10:05:17.004Z,18.06
2023-05-18T10:06:16.534Z,17.89
2023-05-18T10:07:17.138Z,17.61
2023-05-18T10:08:16.705Z,17.64
2023-05-18T10:09:17.272Z,18.09
2023-05-18T10:10:16.839Z,18.49
2023-05-18T10:11:16.380Z,18.96
2023-05-18T10:12:16.712Z,20.03
2023-05-18T10:13:17.310Z,20.74
2023-05-18T10:14:16.861Z,21.14
2023-05-18T10:15:16.432Z,20.30
2023-05-18T10:16:16.984Z,20.12
2023-05-18T10:17:17.410Z,20.48
2023-05-18T10:18:16.502Z,20.30
2023-05-18T10:19:17.161Z,19.27
2023-05-18T10:20:16.792Z,18.23
2023-05-18T10:21:16.363Z,18.11
2023-05-18T10:22:16.387Z,16.84
2023-05-18T10:23:16.999Z,17.78
2023-05-18T10:24:16.559Z,17.11
2023-05-18T10:25:17.121Z,16.40
2023-05-18T10:26:16.665Z,16.59
2023-05-18T10:27:17.238Z,17.33
2023-05-18T10:28:16.808Z,17.54
2023-05-18T10:29:16.428Z,17.42
2023-05-18T10:30:16.984Z,17.80
2023-05-18T10:31:16.560Z,17.98
2023-05-18T10:32:17.119Z,18.20
2023-05-18T10:33:25.036Z,18.43
2023-05-18T10:34:16.530Z,18.40
2023-05-18T10:35:17.110Z,16.67
2023-05-18T10:36:16.698Z,16.15
2023-05-18T10:37:17.256Z,16.14
2023-05-18T10:38:16.849Z,16.22
2023-05-18T10:39:16.420Z,16.60
2023-05-18T10:40:17.021Z,16.97
2023-05-18T10:41:16.649Z,18.04
2023-05-18T10:42:16.421Z,17.58
2023-05-18T10:43:19.045Z,16.87
2023-05-18T10:44:16.675Z,16.86
2023-05-18T10:45:17.216Z,17.23
2023-05-18T10:46:16.845Z,17.35
2023-05-18T10:47:16.732Z,17.47
2023-05-18T10:48:16.747Z,17.12
2023-05-18T10:49:16.393Z,17.22
2023-05-18T10:50:17.032Z,17.57
2023-05-18T10:51:16.724Z,17.77
2023-05-18T10:52:16.941Z,18.44
2023-05-18T10:53:16.559Z,18.50
2023-05-18T10:54:17.119Z,18.27
2023-05-18T10:55:16.684Z,18.26
2023-05-18T10:56:17.257Z,17.32
2023-05-18T10:57:16.809Z,16.90
2023-05-18T10:58:16.369Z,16.77
2023-05-18T10:59:16.955Z,16.63
2023-05-18T11:00:16.640Z,15.47
2023-05-18T11:01:17.231Z,15.76
2023-05-18T11:02:16.629Z,15.84
2023-05-18T11:03:17.250Z,16.18
2023-05-18T11:04:16.925Z,16.24
2023-05-18T11:05:16.563Z,16.36
2023-05-18T11:06:17.274Z,16.49
2023-05-18T11:07:16.855Z,16.17
2023-05-18T11:08:16.432Z,17.08
2023-05-18T11:09:17.016Z,17.16
2023-05-18T11:10:16.620Z,16.81
2023-05-18T11:11:19.094Z,17.56
2023-05-18T11:12:16.363Z,17.50
2023-05-18T11:13:16.954Z,17.18
2023-05-18T11:14:16.507Z,17.76
2023-05-18T11:15:17.100Z,18.08
2023-05-18T11:16:16.681Z,17.49
2023-05-18T11:17:16.329Z,16.62
2023-05-18T11:18:16.902Z,16.71
2023-05-18T11:19:16.651Z,16.57
2023-05-18T11:20:17.340Z,16.95
2023-05-18T11:21:16.952Z,17.11
2023-05-18T11:22:16.354Z,17.29
2023-05-18T11:23:16.953Z,17.21
2023-05-18T11:24:16.523Z,17.18
2023-05-18T11:25:17.092Z,17.02
2023-05-18T11:26:16.659Z,17.15
2023-05-18T11:27:17.223Z,17.46
2023-05-18T11:28:16.797Z,17.71
2023-05-18T11:29:16.334Z,18.17
2023-05-18T11:30:16.950Z,18.71
2023-05-18T11:31:16.507Z,18.60
2023-05-18T11:32:20.796Z,18.11
2023-05-18T11:33:16.736Z,16.70
2023-05-18T11:34:16.524Z,16.56
2023-05-18T11:35:17.087Z,16.63
2023-05-18T11:36:16.683Z,16.70
2023-05-18T11:37:17.282Z,16.99
2023-05-18T11:38:16.851Z,17.37
2023-05-18T11:39:16.397Z,17.43
2023-05-18T11:40:16.986Z,16.53
2023-05-18T11:41:16.522Z,16.52
2023-05-18T11:42:16.988Z,17.04
2023-05-18T11:43:16.524Z,16.49
2023-05-18T11:44:17.242Z,16.73
2023-05-18T11:45:16.843Z,16.59
2023-05-18T11:46:16.422Z,16.52
2023-05-18T11:47:17.024Z,16.63
2023-05-18T11:48:16.687Z,17.11
2023-05-18T11:49:16.402Z,16.60
2023-05-18T11:50:17.097Z,16.66
2023-05-18T11:51:16.654Z,17.07
2023-05-18T11:52:16.496Z,17.25
2023-05-18T11:53:17.083Z,17.08
2023-05-18T11:54:16.678Z,17.12
2023-05-18T11:55:17.250Z,17.27
2023-05-18T11:56:16.776Z,17.26
2023-05-18T11:57:16.389Z,17.27
2023-05-18T11:58:16.951Z,17.12
2023-05-18T11:59:16.495Z,16.97
2023-05-18T12:00:17.117Z,16.77
2023-05-18T12:01:16.706Z,16.66
2023-05-18T12:02:17.071Z,16.47
2023-05-18T12:03:16.766Z,16.60
2023-05-18T12:04:16.634Z,16.88
2023-05-18T12:05:16.419Z,16.91
2023-05-18T12:06:16.994Z,16.32
2023-05-18T12:07:16.559Z,16.37
2023-05-18T12:08:17.118Z,16.39
2023-05-18T12:09:16.742Z,16.47
2023-05-18T12:10:16.339Z,16.47
2023-05-18T12:11:16.866Z,16.40
2023-05-18T12:12:16.698Z,16.33
2023-05-18T12:13:17.287Z,16.39
2023-05-18T12:14:16.854Z,16.45
2023-05-18T12:15:17.292Z,16.18
2023-05-18T12:16:17.126Z,16.21
2023-05-18T12:17:16.858Z,16.40
2023-05-18T12:18:16.475Z,16.01
2023-05-18T12:19:17.162Z,16.05
2023-05-18T12:20:16.892Z,16.21
2023-05-18T12:21:16.467Z,16.31
2023-05-18T12:22:17.196Z,16.18
2023-05-18T12:23:16.761Z,16.00
2023-05-18T12:24:16.328Z,16.00
2023-05-18T12:25:16.875Z,16.22
2023-05-18T12:26:16.422Z,16.24
2023-05-18T12:27:17.009Z,16.24
2023-05-18T12:28:16.577Z,16.26
2023-05-18T12:29:17.130Z,16.21
2023-05-18T12:30:16.729Z,16.07
2023-05-18T12:31:16.356Z,16.02
2023-05-18T12:32:17.018Z,15.98
2023-05-18T12:33:16.655Z,16.17
2023-05-18T12:34:16.312Z,15.92
2023-05-18T12:35:16.854Z,15.88
2023-05-18T12:36:16.384Z,15.95
2023-05-18T12:37:16.986Z,16.04
2023-05-18T12:38:16.531Z,16.02
2023-05-18T12:39:17.151Z,16.07
2023-05-18T12:40:16.802Z,15.83
2023-05-18T12:41:16.463Z,15.92
2023-05-18T12:42:17.012Z,16.00
2023-05-18T12:43:16.581Z,16.19
2023-05-18T12:44:17.206Z,16.33
2023-05-18T12:45:16.762Z,16.35
2023-05-18T12:46:17.365Z,16.36
2023-05-18T12:47:17.013Z,16.46
2023-05-18T12:48:16.599Z,16.50
2023-05-18T12:49:17.201Z,16.47
2023-05-18T12:50:16.781Z,16.32
2023-05-18T12:51:16.352Z,16.36
2023-05-18T12:52:17.290Z,16.36
2023-05-18T12:53:16.853Z,16.31
2023-05-18T12:54:16.464Z,16.05
2023-05-18T12:55:17.041Z,16.04
2023-05-18T12:56:16.634Z,15.98
2023-05-18T12:57:17.222Z,15.98
2023-05-18T12:58:17.148Z,15.95
2023-05-18T12:59:16.809Z,16.05
2023-05-18T13:00:16.361Z,15.97
2023-05-18T13:01:16.926Z,15.90
2023-05-18T13:02:16.713Z,15.97
2023-05-18T13:03:17.451Z,15.98